This is the latest recevied weather packets stored in our database for station/object OE5ERN-10. If no packets are shown the sender has not sent any weather packets the latest 1 day(s).
| Time | Temp. | Humidity | Pressure | Rain* | Wind** | Luminosity | Snow |
|---|---|---|---|---|---|---|---|
| 1777992032 | 29.44° C | 25% | 1007.7 hPa | 0 mm | 0 m/s | - | - |
| 1777991132 | 30.56° C | 23% | 1007.7 hPa | 0 mm | 2.68 m/s, 90° | - | - |
| 1777990232 | 32.22° C | 22% | 1008.1 hPa | 0 mm | 0 m/s | - | - |
| 1777989332 | 32.78° C | 22% | 1008.2 hPa | 0 mm | 0 m/s | - | - |
| 1777988432 | 32.22° C | 22% | 1008.2 hPa | 0 mm | 1.34 m/s, 157° | - | - |
| 1777987532 | 32.22° C | 22% | 1008.4 hPa | 0 mm | 1.34 m/s, 180° | - | - |
| 1777986632 | 32.78° C | 24% | 1008.5 hPa | 0 mm | 0 m/s | - | - |
| 1777985732 | 32.78° C | 22% | 1008.8 hPa | 0 mm | 0.45 m/s, 247° | - | - |
| 1777984832 | 31.67° C | 26% | 1009 hPa | 0 mm | 0 m/s | - | - |
| 1777983932 | 32.22° C | 26% | 1009.1 hPa | 0 mm | 0.45 m/s, 90° | - | - |
| 1777983032 | 33.33° C | 25% | 1009.4 hPa | 0 mm | 0 m/s | - | - |
| 1777982132 | 32.22° C | 27% | 1009.6 hPa | 0 mm | 0.45 m/s, 270° | - | - |
| 1777981232 | 32.22° C | 25% | 1009.7 hPa | 0 mm | 0.89 m/s, 247° | - | - |
| 1777980332 | 31.67° C | 28% | 1009.9 hPa | 0 mm | 0.89 m/s, 292° | - | - |
| 1777979432 | 31.11° C | 29% | 1010.1 hPa | 0 mm | 1.34 m/s, 225° | - | - |
| 1777978532 | 31.11° C | 29% | 1010.2 hPa | 0 mm | 0 m/s | - | - |
| 1777977632 | 32.22° C | 28% | 1010.7 hPa | 0 mm | 0.45 m/s, 247° | - | - |
| 1777976732 | 32.22° C | 27% | 1010.7 hPa | 0 mm | 0 m/s | - | - |
| 1777975832 | 34.44° C | 25% | 1010.8 hPa | 0 mm | 0.89 m/s, 270° | - | - |
| 1777974932 | 36.67° C | 23% | 1010.9 hPa | 0 mm | 0.45 m/s, 270° | - | - |
| 1777974032 | 38.89° C | 22% | 1011.2 hPa | 0 mm | 0 m/s | - | - |
| 1777973132 | 41.11° C | 21% | 1011.3 hPa | 0 mm | 0 m/s | - | - |
| 1777972232 | 40.56° C | 21% | 1011.4 hPa | 0 mm | 0 m/s | - | - |
| 1777971332 | 40° C | 22% | 1011.8 hPa | 0 mm | 0 m/s | - | - |
| 1777970433 | 39.44° C | 22% | 1011.9 hPa | 0 mm | 1.79 m/s, 270° | - | - |
* Rain latest hour (hover to see other rain measurements)
** Current wind speed in m/s (hover to see current wind gust speed)